パゴパゴ の空港の天気 - METARとTAF

パゴパゴ国際空港 ( NSTU / PPG ) - アメリカ領サモア パゴパゴ
飛行場実況気象(Metar)
観測時間05/28 11:50 SST (05/28 22:50 UTC)
風向・風速東 7m/s
視程10km以上
天気現象
少しの雲 雲底高度 550m
全天の4割程度の雲 雲底高度 1220m
全天の8割程度の雲 雲底高度 3350m
気温30.9℃
湿度78%
気圧1013.9hPa
METARNSTU 282250Z 09014KT 12SM FEW018 SCT040 BKN110 31/27 A2994 RMK SLP139 T03090266
過去の天気等 Google飛行場航空写真 Wunderground天気予報

過去48時間のMETAR

飛行場予報(TAF)
発表時間: 5/28 06:31 SST (5/28 17:31 UTC)
予報対象時間: 28日7時 SST ~ 29日7時 SST
風向・風速東 6m/s
視程10km以上
全天の4割程度の雲 雲底高度 460m
全天の4割程度の雲 雲底高度 1220m
全天の8割程度の雲 雲底高度 3050m
28日9時 SST から
風向・風速東南東 5m/s
視程10km以上
天気現象周辺でしゅう雨
全天の4割程度の雲 雲底高度 610m
全天の8割程度の雲 雲底高度 1220m
全天の8割程度の雲 雲底高度 2740m
28日18時 SST から
風向・風速東 6m/s
視程10km以上
全天の4割程度の雲 雲底高度 610m
全天の4割程度の雲 雲底高度 1220m
全天の8割程度の雲 雲底高度 2740m
NSTU 281731Z 2818/2918 09011KT P6SM SCT015 SCT040 BKN100
FM282000 12009KT P6SM VCSH SCT020 BKN040 BKN090
FM290500 08011KT P6SM SCT020 SCT040 BKN090